EWG5R EDDS-LEPA
Flight info
| Callsign | EWG5R |
|---|---|
| Flight time | 1h 48m |
| Altitude | 31000 |
| Route | ROTWE7H ROTWE Y126 TUBLO N850 NATOR DCT LUTIX DCT BENOT/N0449F370 DCT NEMOS DCT GEVEA DCT INCUS DCT BALSI DCT RETNO DCT TUPOX DCT MTG DCT DIVKO DCT VATIR DCT PIVUS DCT BODEQ DCT VERSO L129 LUNIK |
| Aircraft | A320/M-SDE3FGHIRWY/LB1 |
Departure
| Time | 2026-05-04 15:11 |
|---|---|
| Airport | Stuttgart Airport (EDDS) |
Arrival
| Time | 2026-05-04 17:00 |
|---|---|
| Airport | Palma de Mallorca Airport (LEPA) |
| Time | Latitude | Longitude | Altitude | Speed | Heading |
|---|---|---|---|---|---|
| 2026-05-04 14:43 | 48.68859 | 9.19211 | 1316 ft | 0 kts | 344° |
| 2026-05-04 14:46 | 48.68953 | 9.19715 | 1312 ft | 0 kts | 344° |
| 2026-05-04 15:03 | 48.68933 | 9.19723 | 1311 ft | 4 kts | 344° |
| 2026-05-04 15:03 | 48.68907 | 9.19733 | 1309 ft | 4 kts | 356° |
| 2026-05-04 15:03 | 48.68882 | 9.19729 | 1308 ft | 4 kts | 32° |
| 2026-05-04 15:03 | 48.68868 | 9.19706 | 1308 ft | 1 kts | 74° |
| 2026-05-04 15:04 | 48.68867 | 9.19700 | 1308 ft | 1 kts | 74° |
| 2026-05-04 15:06 | 48.68868 | 9.19704 | 1308 ft | 3 kts | 74° |
| 2026-05-04 15:06 | 48.68875 | 9.19742 | 1307 ft | 10 kts | 73° |
| 2026-05-04 15:07 | 48.68797 | 9.19931 | 1296 ft | 9 kts | 151° |
| 2026-05-04 15:07 | 48.68752 | 9.19961 | 1293 ft | 0 kts | 163° |
| 2026-05-04 15:07 | 48.68739 | 9.19966 | 1292 ft | 1 kts | 166° |
| 2026-05-04 15:07 | 48.68736 | 9.19967 | 1292 ft | 4 kts | 166° |
| 2026-05-04 15:08 | 48.68683 | 9.19987 | 1289 ft | 7 kts | 165° |
| 2026-05-04 15:08 | 48.68676 | 9.19990 | 1288 ft | 0 kts | 164° |
| 2026-05-04 15:09 | 48.68662 | 9.19996 | 1287 ft | 8 kts | 164° |
| 2026-05-04 15:09 | 48.68597 | 9.20024 | 1287 ft | 7 kts | 164° |
| 2026-05-04 15:09 | 48.68583 | 9.20081 | 1283 ft | 7 kts | 71° |
| 2026-05-04 15:10 | 48.68596 | 9.20139 | 1282 ft | 0 kts | 72° |
| 2026-05-04 15:10 | 48.68818 | 9.21295 | 1267 ft | 130 kts | 73° |
| 2026-05-04 15:11 | 48.69113 | 9.22872 | 1468 ft | 166 kts | 73° |
| 2026-05-04 15:11 | 48.69402 | 9.24532 | 2402 ft | 161 kts | 75° |
| 2026-05-04 15:11 | 48.69707 | 9.26180 | 3171 ft | 169 kts | 70° |
| 2026-05-04 15:11 | 48.70060 | 9.27996 | 3605 ft | 191 kts | 72° |
| 2026-05-04 15:12 | 48.70457 | 9.30022 | 4017 ft | 216 kts | 71° |
| 2026-05-04 15:12 | 48.70879 | 9.32336 | 4524 ft | 242 kts | 77° |
| 2026-05-04 15:12 | 48.70677 | 9.35023 | 5138 ft | 269 kts | 114° |
| 2026-05-04 15:12 | 48.69449 | 9.37146 | 6140 ft | 272 kts | 149° |
| 2026-05-04 15:13 | 48.67680 | 9.37891 | 7262 ft | 270 kts | 181° |
| 2026-05-04 15:13 | 48.65893 | 9.37052 | 8282 ft | 275 kts | 214° |
| 2026-05-04 15:13 | 48.64586 | 9.34929 | 9347 ft | 278 kts | 232° |
| 2026-05-04 15:13 | 48.63468 | 9.32528 | 10339 ft | 284 kts | 234° |
| 2026-05-04 15:14 | 48.62327 | 9.29942 | 10756 ft | 308 kts | 235° |
| 2026-05-04 15:14 | 48.61102 | 9.27149 | 11221 ft | 327 kts | 235° |
| 2026-05-04 15:14 | 48.59825 | 9.24256 | 12000 ft | 334 kts | 235° |
| 2026-05-04 15:14 | 48.58519 | 9.21333 | 12870 ft | 338 kts | 235° |
| 2026-05-04 15:15 | 48.57186 | 9.18384 | 13755 ft | 341 kts | 235° |
| 2026-05-04 15:15 | 48.55831 | 9.15422 | 14531 ft | 344 kts | 234° |
| 2026-05-04 15:15 | 48.54453 | 9.12430 | 15323 ft | 348 kts | 234° |
| 2026-05-04 15:16 | 48.51661 | 9.06378 | 16857 ft | 355 kts | 234° |
| 2026-05-04 15:16 | 48.50244 | 9.03308 | 17598 ft | 359 kts | 234° |
| 2026-05-04 15:16 | 48.47365 | 8.97078 | 18955 ft | 366 kts | 234° |
| 2026-05-04 15:17 | 48.45903 | 8.93915 | 19578 ft | 369 kts | 234° |
| 2026-05-04 15:17 | 48.42943 | 8.87514 | 20819 ft | 375 kts | 234° |
| 2026-05-04 15:17 | 48.41441 | 8.84272 | 21430 ft | 378 kts | 234° |
| 2026-05-04 15:18 | 48.39949 | 8.81055 | 22034 ft | 381 kts | 234° |
| 2026-05-04 15:18 | 48.38422 | 8.77765 | 22627 ft | 385 kts | 234° |
| 2026-05-04 15:18 | 48.36884 | 8.74455 | 23206 ft | 388 kts | 233° |
| 2026-05-04 15:19 | 48.33766 | 8.67768 | 24211 ft | 393 kts | 233° |
| 2026-05-04 15:19 | 48.32187 | 8.64395 | 24699 ft | 395 kts | 233° |
| 2026-05-04 15:19 | 48.29007 | 8.57616 | 25702 ft | 399 kts | 233° |
| 2026-05-04 15:20 | 48.27405 | 8.54205 | 26163 ft | 401 kts | 233° |
| 2026-05-04 15:20 | 48.25792 | 8.50775 | 26632 ft | 403 kts | 233° |
| 2026-05-04 15:20 | 48.24166 | 8.47314 | 27080 ft | 406 kts | 233° |
| 2026-05-04 15:20 | 48.22535 | 8.43844 | 27529 ft | 408 kts | 233° |
| 2026-05-04 15:21 | 48.20894 | 8.40371 | 28004 ft | 410 kts | 233° |
| 2026-05-04 15:21 | 48.19241 | 8.36877 | 28420 ft | 412 kts | 233° |
| 2026-05-04 15:21 | 48.15334 | 8.30607 | 29221 ft | 413 kts | 217° |
| 2026-05-04 15:22 | 48.12942 | 8.28194 | 29601 ft | 415 kts | 212° |
| 2026-05-04 15:22 | 48.10505 | 8.25850 | 30014 ft | 417 kts | 212° |
| 2026-05-04 15:22 | 48.05610 | 8.21131 | 30667 ft | 420 kts | 212° |
| 2026-05-04 15:23 | 48.03148 | 8.18760 | 30934 ft | 420 kts | 212° |
| 2026-05-04 15:23 | 48.00714 | 8.16422 | 30991 ft | 411 kts | 212° |
| 2026-05-04 15:23 | 47.95953 | 8.11854 | 30993 ft | 405 kts | 212° |
| 2026-05-04 15:24 | 47.86531 | 8.02843 | 30997 ft | 403 kts | 212° |
| 2026-05-04 15:25 | 47.81811 | 7.98345 | 30999 ft | 403 kts | 212° |
| 2026-05-04 15:26 | 47.74702 | 7.91577 | 30995 ft | 402 kts | 212° |
| 2026-05-04 15:26 | 47.67660 | 7.84899 | 30996 ft | 402 kts | 212° |
| 2026-05-04 15:27 | 47.60582 | 7.78212 | 31004 ft | 402 kts | 212° |
| 2026-05-04 15:28 | 47.53491 | 7.71538 | 31000 ft | 402 kts | 212° |
| 2026-05-04 15:29 | 47.46394 | 7.64877 | 31003 ft | 403 kts | 212° |
| 2026-05-04 15:30 | 47.29831 | 7.49426 | 31025 ft | 403 kts | 212° |
| 2026-05-04 15:31 | 47.22715 | 7.42807 | 31046 ft | 403 kts | 211° |
| 2026-05-04 15:32 | 47.15857 | 7.35672 | 31040 ft | 405 kts | 224° |
| 2026-05-04 15:32 | 47.12279 | 7.29247 | 31031 ft | 407 kts | 229° |
| 2026-05-04 15:34 | 47.03447 | 7.13019 | 31027 ft | 407 kts | 229° |
| 2026-05-04 15:34 | 46.98121 | 7.03285 | 31035 ft | 408 kts | 229° |
| 2026-05-04 15:35 | 46.92784 | 6.93561 | 31049 ft | 408 kts | 229° |
| 2026-05-04 15:36 | 46.86589 | 6.85163 | 31043 ft | 405 kts | 218° |
| 2026-05-04 15:36 | 46.82244 | 6.79981 | 31041 ft | 406 kts | 218° |
| 2026-05-04 15:37 | 46.77862 | 6.74765 | 31043 ft | 406 kts | 218° |
| 2026-05-04 15:37 | 46.73474 | 6.69566 | 31034 ft | 407 kts | 218° |
| 2026-05-04 15:38 | 46.69077 | 6.64362 | 31039 ft | 406 kts | 218° |
| 2026-05-04 15:38 | 46.64699 | 6.59183 | 31043 ft | 407 kts | 218° |
| 2026-05-04 15:39 | 46.60302 | 6.53997 | 31050 ft | 407 kts | 218° |
| 2026-05-04 15:40 | 46.53688 | 6.46213 | 31063 ft | 407 kts | 218° |
| 2026-05-04 15:40 | 46.49282 | 6.41051 | 31089 ft | 406 kts | 218° |
| 2026-05-04 15:41 | 46.44892 | 6.35921 | 31088 ft | 405 kts | 218° |
| 2026-05-04 15:41 | 46.40535 | 6.30829 | 31076 ft | 404 kts | 218° |
| 2026-05-04 15:42 | 46.36158 | 6.25726 | 31060 ft | 404 kts | 218° |
| 2026-05-04 15:42 | 46.31780 | 6.20637 | 31052 ft | 404 kts | 218° |
| 2026-05-04 15:43 | 46.27347 | 6.15676 | 31047 ft | 403 kts | 212° |
| 2026-05-04 15:43 | 46.22186 | 6.12558 | 31046 ft | 404 kts | 193° |
| 2026-05-04 15:44 | 46.16634 | 6.11279 | 31035 ft | 404 kts | 190° |
| 2026-05-04 15:44 | 46.11075 | 6.10046 | 31035 ft | 404 kts | 190° |
| 2026-05-04 15:45 | 46.05504 | 6.08809 | 31032 ft | 405 kts | 190° |
| 2026-05-04 15:45 | 45.99963 | 6.07586 | 31021 ft | 405 kts | 191° |
| 2026-05-04 15:46 | 45.94382 | 6.06351 | 31029 ft | 406 kts | 191° |
| 2026-05-04 15:46 | 45.88785 | 6.05106 | 31031 ft | 407 kts | 191° |
| 2026-05-04 15:47 | 45.83180 | 6.03876 | 31035 ft | 407 kts | 191° |
| 2026-05-04 15:47 | 45.77576 | 6.02642 | 31030 ft | 407 kts | 191° |
| 2026-05-04 15:48 | 45.71973 | 6.01402 | 31035 ft | 407 kts | 191° |
| 2026-05-04 15:48 | 45.63575 | 5.99536 | 31044 ft | 407 kts | 191° |
| 2026-05-04 15:49 | 45.58926 | 5.98512 | 31041 ft | 407 kts | 192° |
| 2026-05-04 15:49 | 45.52416 | 5.97097 | 31037 ft | 407 kts | 192° |
| 2026-05-04 15:50 | 45.47758 | 5.96087 | 31033 ft | 406 kts | 192° |
| 2026-05-04 15:50 | 45.42219 | 5.94542 | 31023 ft | 405 kts | 196° |
| 2026-05-04 15:51 | 45.36726 | 5.92716 | 31018 ft | 405 kts | 196° |
| 2026-05-04 15:51 | 45.31237 | 5.90914 | 31013 ft | 404 kts | 195° |
| 2026-05-04 15:52 | 45.25731 | 5.89182 | 31013 ft | 405 kts | 195° |
| 2026-05-04 15:52 | 45.20222 | 5.87485 | 31014 ft | 405 kts | 195° |
| 2026-05-04 15:53 | 45.14756 | 5.85807 | 31022 ft | 405 kts | 195° |
| 2026-05-04 15:53 | 45.09276 | 5.84115 | 31018 ft | 404 kts | 195° |
| 2026-05-04 15:54 | 45.03833 | 5.82353 | 30987 ft | 402 kts | 201° |
| 2026-05-04 15:54 | 44.98634 | 5.79546 | 31000 ft | 400 kts | 204° |
| 2026-05-04 15:55 | 44.93442 | 5.76710 | 31007 ft | 400 kts | 204° |
| 2026-05-04 15:55 | 44.88250 | 5.73877 | 31011 ft | 400 kts | 204° |
| 2026-05-04 15:56 | 44.83093 | 5.71078 | 31004 ft | 399 kts | 204° |
| 2026-05-04 15:56 | 44.77905 | 5.68266 | 31020 ft | 399 kts | 204° |
| 2026-05-04 15:57 | 44.72723 | 5.65454 | 31004 ft | 399 kts | 204° |
| 2026-05-04 15:57 | 44.67536 | 5.62649 | 31009 ft | 400 kts | 204° |
| 2026-05-04 15:58 | 44.62339 | 5.59845 | 31006 ft | 400 kts | 204° |
| 2026-05-04 15:58 | 44.57142 | 5.57042 | 31010 ft | 400 kts | 204° |
| 2026-05-04 15:59 | 44.51941 | 5.54241 | 31012 ft | 400 kts | 204° |
| 2026-05-04 15:59 | 44.46749 | 5.51453 | 31018 ft | 400 kts | 203° |
| 2026-05-04 16:00 | 44.41585 | 5.48696 | 31031 ft | 399 kts | 203° |
| 2026-05-04 16:00 | 44.36405 | 5.45927 | 31031 ft | 398 kts | 203° |
| 2026-05-04 16:01 | 44.31226 | 5.43167 | 31034 ft | 397 kts | 203° |
| 2026-05-04 16:01 | 44.26056 | 5.40413 | 31025 ft | 396 kts | 204° |
| 2026-05-04 16:02 | 44.20907 | 5.37677 | 31033 ft | 396 kts | 203° |
| 2026-05-04 16:03 | 44.13196 | 5.33592 | 31035 ft | 395 kts | 204° |
| 2026-05-04 16:03 | 44.08065 | 5.30873 | 31026 ft | 395 kts | 204° |
| 2026-05-04 16:04 | 44.02961 | 5.28176 | 31021 ft | 394 kts | 204° |
| 2026-05-04 16:04 | 43.95264 | 5.24120 | 31012 ft | 394 kts | 204° |
| 2026-05-04 16:05 | 43.90144 | 5.21423 | 30999 ft | 394 kts | 204° |
| 2026-05-04 16:06 | 43.82465 | 5.17400 | 30999 ft | 392 kts | 204° |
| 2026-05-04 16:07 | 43.72334 | 5.12104 | 31000 ft | 392 kts | 204° |
| 2026-05-04 16:08 | 43.62167 | 5.06802 | 31011 ft | 389 kts | 204° |
| 2026-05-04 16:09 | 43.49572 | 5.00262 | 30998 ft | 387 kts | 204° |
| 2026-05-04 16:10 | 43.39513 | 4.95069 | 31029 ft | 386 kts | 204° |
| 2026-05-04 16:11 | 43.29440 | 4.89891 | 30968 ft | 386 kts | 204° |
| 2026-05-04 16:12 | 43.14345 | 4.82156 | 30949 ft | 385 kts | 203° |
| 2026-05-04 16:13 | 43.04440 | 4.76820 | 30929 ft | 383 kts | 211° |
| 2026-05-04 16:14 | 42.95100 | 4.69721 | 30924 ft | 384 kts | 211° |
| 2026-05-04 16:16 | 42.83394 | 4.60856 | 30922 ft | 387 kts | 211° |
| 2026-05-04 16:17 | 42.71610 | 4.51990 | 30936 ft | 386 kts | 211° |
| 2026-05-04 16:18 | 42.62192 | 4.44948 | 30939 ft | 385 kts | 211° |
| 2026-05-04 16:19 | 42.50499 | 4.36199 | 30912 ft | 385 kts | 210° |
| 2026-05-04 16:20 | 42.38745 | 4.27456 | 30908 ft | 385 kts | 210° |
| 2026-05-04 16:22 | 42.26984 | 4.18757 | 30933 ft | 386 kts | 210° |
| 2026-05-04 16:23 | 42.12900 | 4.08385 | 30932 ft | 382 kts | 210° |
| 2026-05-04 16:25 | 41.98900 | 3.98110 | 30901 ft | 383 kts | 210° |
| 2026-05-04 16:26 | 41.89082 | 3.92588 | 30874 ft | 390 kts | 194° |
| 2026-05-04 16:26 | 41.81033 | 3.90734 | 30883 ft | 392 kts | 194° |
| 2026-05-04 16:28 | 41.67566 | 3.87640 | 30887 ft | 393 kts | 194° |
| 2026-05-04 16:29 | 41.48688 | 3.83314 | 30885 ft | 394 kts | 195° |
| 2026-05-04 16:31 | 41.35211 | 3.80233 | 30923 ft | 392 kts | 194° |
| 2026-05-04 16:32 | 41.19128 | 3.76565 | 30911 ft | 391 kts | 194° |
| 2026-05-04 16:33 | 41.13856 | 3.74965 | 30906 ft | 384 kts | 205° |
| 2026-05-04 16:33 | 41.08876 | 3.72377 | 30909 ft | 384 kts | 205° |
| 2026-05-04 16:34 | 41.01410 | 3.68536 | 30905 ft | 383 kts | 205° |
| 2026-05-04 16:35 | 40.86580 | 3.60927 | 30915 ft | 381 kts | 205° |
| 2026-05-04 16:36 | 40.79154 | 3.57130 | 30903 ft | 381 kts | 205° |
| 2026-05-04 16:37 | 40.71738 | 3.53350 | 30904 ft | 381 kts | 205° |
| 2026-05-04 16:38 | 40.61837 | 3.48313 | 30907 ft | 381 kts | 205° |
| 2026-05-04 16:39 | 40.54416 | 3.44547 | 29868 ft | 384 kts | 205° |
| 2026-05-04 16:39 | 40.49439 | 3.42027 | 28661 ft | 371 kts | 205° |
| 2026-05-04 16:40 | 40.44626 | 3.39823 | 27479 ft | 365 kts | 197° |
| 2026-05-04 16:40 | 40.40379 | 3.39434 | 26375 ft | 371 kts | 184° |
| 2026-05-04 16:41 | 40.35242 | 3.39741 | 25079 ft | 367 kts | 184° |
| 2026-05-04 16:41 | 40.27610 | 3.40189 | 23187 ft | 364 kts | 184° |
| 2026-05-04 16:42 | 40.20163 | 3.40610 | 21507 ft | 353 kts | 184° |
| 2026-05-04 16:43 | 40.15300 | 3.40890 | 20482 ft | 347 kts | 184° |
| 2026-05-04 16:43 | 40.10517 | 3.41163 | 19748 ft | 335 kts | 183° |
| 2026-05-04 16:43 | 40.08225 | 3.41298 | 19542 ft | 325 kts | 183° |
| 2026-05-04 16:44 | 39.99332 | 3.41779 | 18497 ft | 318 kts | 183° |
| 2026-05-04 16:45 | 39.94901 | 3.42021 | 17484 ft | 320 kts | 182° |
| 2026-05-04 16:46 | 39.88333 | 3.42399 | 16204 ft | 309 kts | 182° |
| 2026-05-04 16:46 | 39.84062 | 3.42638 | 15056 ft | 307 kts | 182° |
| 2026-05-04 16:47 | 39.79815 | 3.42879 | 14260 ft | 303 kts | 182° |
| 2026-05-04 16:47 | 39.75681 | 3.43119 | 13139 ft | 296 kts | 182° |
| 2026-05-04 16:48 | 39.70453 | 3.40389 | 11774 ft | 280 kts | 242° |
| 2026-05-04 16:48 | 39.69935 | 3.37950 | 11178 ft | 287 kts | 266° |
| 2026-05-04 16:49 | 39.70088 | 3.32877 | 9972 ft | 274 kts | 270° |
| 2026-05-04 16:49 | 39.70259 | 3.28034 | 8694 ft | 267 kts | 269° |
| 2026-05-04 16:50 | 39.70415 | 3.23146 | 7439 ft | 278 kts | 269° |
| 2026-05-04 16:50 | 39.70572 | 3.18076 | 6236 ft | 283 kts | 269° |
| 2026-05-04 16:51 | 39.70726 | 3.13127 | 4976 ft | 263 kts | 269° |
| 2026-05-04 16:51 | 39.70798 | 3.10793 | 4344 ft | 254 kts | 269° |
| 2026-05-04 16:51 | 39.69949 | 3.06838 | 3965 ft | 213 kts | 238° |
| 2026-05-04 16:52 | 39.68424 | 3.03575 | 3971 ft | 211 kts | 237° |
| 2026-05-04 16:52 | 39.67675 | 3.01974 | 3967 ft | 205 kts | 237° |
| 2026-05-04 16:53 | 39.66296 | 2.99028 | 3916 ft | 180 kts | 237° |
| 2026-05-04 16:53 | 39.64387 | 2.94960 | 3327 ft | 172 kts | 238° |
| 2026-05-04 16:54 | 39.63787 | 2.93682 | 3095 ft | 159 kts | 237° |
| 2026-05-04 16:55 | 39.61789 | 2.89431 | 2374 ft | 129 kts | 236° |
| 2026-05-04 16:55 | 39.60857 | 2.87448 | 2021 ft | 128 kts | 237° |
| 2026-05-04 16:56 | 39.59932 | 2.85484 | 1691 ft | 127 kts | 236° |
| 2026-05-04 16:56 | 39.58554 | 2.82557 | 1232 ft | 126 kts | 236° |
| 2026-05-04 16:57 | 39.58100 | 2.81584 | 1058 ft | 126 kts | 234° |
| 2026-05-04 16:57 | 39.57188 | 2.79646 | 702 ft | 127 kts | 236° |
| 2026-05-04 16:58 | 39.55802 | 2.76712 | 158 ft | 127 kts | 237° |
| 2026-05-04 16:58 | 39.55349 | 2.75750 | 38 ft | 120 kts | 237° |
| 2026-05-04 16:59 | 39.54721 | 2.74428 | 30 ft | 52 kts | 239° |
| 2026-05-04 17:00 | 39.54590 | 2.73646 | 30 ft | 16 kts | 315° |
| 2026-05-04 17:00 | 39.54772 | 2.73530 | 30 ft | 9 kts | 328° |
| 2026-05-04 17:01 | 39.54850 | 2.73512 | 30 ft | 4 kts | 45° |
| 2026-05-04 17:01 | 39.54873 | 2.73541 | 30 ft | 0 kts | 47° |